createdAt,value
2022-10-13T00:03:41.980Z,100945.97
2022-10-13T00:07:43.620Z,100943.38
2022-10-13T00:11:45.365Z,100944.50
2022-10-13T00:15:48.087Z,100946.59
2022-10-13T00:19:49.646Z,100943.41
2022-10-13T00:23:53.165Z,100940.31
2022-10-13T00:27:54.641Z,100940.56
2022-10-13T00:31:59.144Z,100932.78
2022-10-13T00:36:00.939Z,100942.16
2022-10-13T00:40:04.185Z,100944.94
2022-10-13T00:44:27.769Z,100940.72
2022-10-13T00:48:31.011Z,100942.72
2022-10-13T00:52:33.524Z,100939.38
2022-10-13T00:56:37.352Z,100932.38
2022-10-13T01:00:38.902Z,100934.38
2022-10-13T01:04:44.126Z,100924.94
2022-10-13T01:08:45.841Z,100935.09
2022-10-13T01:12:59.521Z,100932.84
2022-10-13T01:17:01.191Z,100933.34
2022-10-13T01:21:25.728Z,100926.06
2022-10-13T01:25:30.510Z,100927.78
2022-10-13T01:29:50.910Z,100918.84
2022-10-13T01:33:57.499Z,100916.22
2022-10-13T01:38:09.364Z,100915.06
2022-10-13T01:42:17.419Z,100922.91
2022-10-13T01:46:24.776Z,100910.19
2022-10-13T01:50:26.620Z,100910.78
2022-10-13T01:54:28.126Z,100909.63
2022-10-13T01:58:33.943Z,100902.88
2022-10-13T02:03:05.805Z,100898.84
2022-10-13T02:07:22.098Z,100911.34
2022-10-13T02:11:25.092Z,100899.44
2022-10-13T02:15:38.093Z,100896.69
2022-10-13T02:19:43.362Z,100895.78
2022-10-13T02:23:45.906Z,100895.13
2022-10-13T02:27:47.531Z,100895.44
2022-10-13T02:31:49.009Z,100900.38
2022-10-13T02:35:50.643Z,100889.69
2022-10-13T02:39:52.570Z,100887.06
2022-10-13T02:43:54.398Z,100883.53
2022-10-13T02:48:00.734Z,100890.84
2022-10-13T02:52:02.210Z,100895.41
2022-10-13T02:56:03.947Z,100884.81
2022-10-13T03:00:07.290Z,100885.81
2022-10-13T03:04:09.865Z,100884.19
2022-10-13T03:08:11.591Z,100888.97
2022-10-13T03:12:14.886Z,100878.22
2022-10-13T03:16:16.501Z,100881.78
2022-10-13T03:20:18.278Z,100879.72
2022-10-13T03:24:19.832Z,100880.09
2022-10-13T03:28:21.700Z,100877.56
2022-10-13T03:32:25.856Z,100875.84
2022-10-13T03:36:27.534Z,100877.06
2022-10-13T03:40:29.095Z,100877.91
2022-10-13T03:44:30.615Z,100870.16
2022-10-13T03:48:34.341Z,100870.53
2022-10-13T03:52:35.941Z,100870.44
2022-10-13T03:56:37.483Z,100868.47
2022-10-13T04:00:38.963Z,100873.63
2022-10-13T04:04:40.558Z,100870.75
2022-10-13T04:08:42.185Z,100867.69
2022-10-13T04:12:43.799Z,100872.28
2022-10-13T04:16:46.784Z,100868.28
2022-10-13T04:20:48.323Z,100863.75
2022-10-13T04:24:49.999Z,100866.56
2022-10-13T04:28:53.774Z,100856.75
2022-10-13T04:32:55.427Z,100858.03
2022-10-13T04:36:56.922Z,100855.72
2022-10-13T04:40:58.581Z,100854.63
2022-10-13T04:45:03.741Z,100859.66
2022-10-13T04:49:05.431Z,100861.66
2022-10-13T04:53:09.109Z,100852.56
2022-10-13T04:57:10.590Z,100850.56
2022-10-13T05:01:21.785Z,100849.63
2022-10-13T05:05:23.970Z,100846.63
2022-10-13T05:09:25.633Z,100830.66
2022-10-13T05:13:29.722Z,100832.28
2022-10-13T05:17:35.506Z,100828.72
2022-10-13T05:21:42.821Z,100830.78
2022-10-13T05:25:44.602Z,100833.94
2022-10-13T05:29:48.384Z,100839.03
2022-10-13T05:33:51.743Z,100826.28
2022-10-13T05:37:57.632Z,100818.38
2022-10-13T05:41:59.369Z,100819.56
2022-10-13T05:46:01.518Z,100818.56
2022-10-13T05:50:04.620Z,100806.88
2022-10-13T05:54:26.488Z,100810.06
2022-10-13T05:58:28.144Z,100817.09
2022-10-13T06:02:36.402Z,100818.75
2022-10-13T06:06:48.852Z,100821.06
2022-10-13T06:10:50.714Z,100829.00
2022-10-13T06:14:55.491Z,100825.09
2022-10-13T06:24:43.812Z,100817.44
2022-10-13T06:28:49.820Z,100823.50
2022-10-13T06:32:55.388Z,100814.47
2022-10-13T06:36:58.825Z,100825.00
2022-10-13T06:41:01.814Z,100828.50
2022-10-13T06:45:31.811Z,100833.38
2022-10-13T06:50:01.864Z,100827.66
2022-10-13T06:54:03.869Z,100841.47
2022-10-13T06:58:07.070Z,100839.50
2022-10-13T07:03:11.409Z,100840.22
2022-10-13T07:07:13.707Z,100850.44
2022-10-13T07:11:18.495Z,100856.84
2022-10-13T07:15:26.096Z,100852.94
2022-10-13T07:19:37.126Z,100863.13
2022-10-13T07:23:39.946Z,100851.06
2022-10-13T07:27:44.364Z,100855.19
2022-10-13T07:31:51.062Z,100847.97
2022-10-13T07:35:52.602Z,100845.47
2022-10-13T07:39:55.976Z,100845.50
2022-10-13T07:43:58.301Z,100845.75
2022-10-13T07:48:50.327Z,100837.09
2022-10-13T07:52:51.993Z,100836.16
2022-10-13T07:57:27.523Z,100829.00
2022-10-13T08:01:29.244Z,100820.50
2022-10-13T08:05:53.047Z,100812.19
2022-10-13T08:09:54.750Z,100815.34
2022-10-13T08:14:00.663Z,100808.81
2022-10-13T08:18:02.196Z,100806.38
2022-10-13T08:22:53.500Z,100802.28
2022-10-13T08:27:00.157Z,100804.56
2022-10-13T08:31:02.178Z,100813.28
2022-10-13T08:35:04.386Z,100796.28
2022-10-13T08:39:06.571Z,100782.59
2022-10-13T08:43:24.436Z,100790.16
2022-10-13T08:47:34.739Z,100782.09
2022-10-13T08:56:24.397Z,100774.38
2022-10-13T09:00:26.431Z,100763.78
2022-10-13T09:04:37.775Z,100772.44
2022-10-13T09:09:05.197Z,100763.97
2022-10-13T09:13:09.243Z,100759.34
2022-10-13T09:17:29.166Z,100765.38
2022-10-13T09:21:31.004Z,100753.38
2022-10-13T09:25:42.362Z,100739.94
2022-10-13T09:29:44.858Z,100742.44
2022-10-13T09:33:58.423Z,100741.19
2022-10-13T09:38:19.986Z,100736.53
2022-10-13T09:42:24.961Z,100740.28
2022-10-13T09:47:04.251Z,100731.63
2022-10-13T09:51:55.477Z,100733.59
2022-10-13T09:56:35.736Z,100726.66
2022-10-13T10:00:38.109Z,100727.28
2022-10-13T10:04:43.203Z,100727.75
2022-10-13T10:09:03.107Z,100728.47
2022-10-13T10:13:05.866Z,100722.94
2022-10-13T10:17:19.690Z,100708.94
2022-10-13T10:21:53.336Z,100703.94
2022-10-13T10:26:32.927Z,100702.66
2022-10-13T10:31:24.648Z,100696.69
2022-10-13T10:35:49.334Z,100683.00
2022-10-13T10:40:02.697Z,100679.81
2022-10-13T10:44:22.852Z,100679.59
2022-10-13T10:48:34.858Z,100671.75
2022-10-13T10:52:56.300Z,100678.72
2022-10-13T10:57:29.095Z,100669.78
2022-10-13T11:01:33.275Z,100655.19
2022-10-13T11:05:57.585Z,100647.41
2022-10-13T11:09:59.260Z,100640.50
2022-10-13T11:14:07.621Z,100634.78
2022-10-13T11:18:46.841Z,100617.41
2022-10-13T11:22:57.588Z,100617.16
2022-10-13T11:27:27.493Z,100612.25
2022-10-13T11:31:35.137Z,100609.50
2022-10-13T11:35:37.848Z,100600.56
2022-10-13T11:40:09.356Z,100592.38
2022-10-13T11:44:49.755Z,100586.25
2022-10-13T11:49:15.570Z,100579.25
2022-10-13T11:53:21.357Z,100569.53
2022-10-13T11:57:27.168Z,100571.63
2022-10-13T12:01:28.719Z,100565.75
2022-10-13T12:05:31.961Z,100566.84
2022-10-13T12:09:39.284Z,100566.81
2022-10-13T12:13:46.711Z,100562.84
2022-10-13T12:17:50.022Z,100548.72
2022-10-13T12:21:54.555Z,100561.06
2022-10-13T12:25:59.950Z,100553.56
2022-10-13T12:30:02.696Z,100550.16
2022-10-13T12:34:04.627Z,100545.34
2022-10-13T12:38:18.832Z,100548.16
2022-10-13T12:42:30.873Z,100541.84
2022-10-13T12:46:43.603Z,100540.75
2022-10-13T12:50:45.381Z,100539.38
2022-10-13T12:54:53.638Z,100531.19
2022-10-13T12:58:56.467Z,100532.59
2022-10-13T13:03:03.969Z,100544.47
2022-10-13T13:07:30.574Z,100542.25
2022-10-13T13:11:39.357Z,100533.38
2022-10-13T13:15:43.959Z,100526.50
2022-10-13T13:19:48.087Z,100524.97
2022-10-13T13:23:53.682Z,100529.81
2022-10-13T13:27:55.816Z,100521.19
2022-10-13T13:31:57.714Z,100526.78
2022-10-13T13:35:59.463Z,100525.88
2022-10-13T13:40:01.554Z,100525.53
2022-10-13T13:44:37.084Z,100524.50
2022-10-13T13:48:39.563Z,100522.53
2022-10-13T13:52:41.753Z,100524.97
2022-10-13T13:57:35.441Z,100519.31
2022-10-13T14:02:03.679Z,100523.34
2022-10-13T14:06:07.664Z,100516.13
2022-10-13T14:11:02.533Z,100507.94
2022-10-13T14:15:05.276Z,100506.00
2022-10-13T14:19:41.963Z,100502.38
2022-10-13T14:35:21.560Z,100483.81
2022-10-13T14:39:23.009Z,100481.88
2022-10-13T14:44:17.690Z,100482.41
2022-10-13T14:48:24.563Z,100483.19
2022-10-13T14:52:26.662Z,100484.44
2022-10-13T14:57:19.356Z,100473.66
2022-10-13T15:01:29.004Z,100475.63
2022-10-13T15:05:31.047Z,100477.13
2022-10-13T15:09:45.153Z,100484.53
2022-10-13T15:14:25.344Z,100475.44
2022-10-13T15:18:43.893Z,100470.78
2022-10-13T15:22:48.878Z,100465.56
2022-10-13T15:26:50.876Z,100468.97
2022-10-13T15:30:52.590Z,100457.38
2022-10-13T15:34:58.188Z,100455.38
2022-10-13T15:39:25.957Z,100457.09
2022-10-13T15:43:28.152Z,100459.66
2022-10-13T15:47:32.753Z,100452.31
2022-10-13T15:51:35.017Z,100453.44
2022-10-13T15:55:41.553Z,100447.00
2022-10-13T15:59:43.475Z,100452.94
2022-10-13T16:03:45.228Z,100458.56
2022-10-13T16:07:50.685Z,100463.91
2022-10-13T16:11:54.659Z,100461.88
2022-10-13T16:16:46.819Z,100463.66
2022-10-13T16:20:48.848Z,100462.75
2022-10-13T16:24:52.062Z,100464.13
2022-10-13T16:28:54.997Z,100458.66
2022-10-13T16:32:57.115Z,100457.41
2022-10-13T16:36:59.042Z,100445.94
2022-10-13T16:41:09.984Z,100453.44
2022-10-13T16:45:11.691Z,100463.66
2022-10-13T16:49:13.301Z,100468.94
2022-10-13T16:53:14.874Z,100477.00
2022-10-13T16:57:16.452Z,100472.50
2022-10-13T17:01:18.604Z,100477.88
2022-10-13T17:05:20.272Z,100478.66
2022-10-13T17:09:21.852Z,100489.53
2022-10-13T17:13:23.520Z,100482.59
2022-10-13T17:17:25.682Z,100492.13
2022-10-13T17:21:27.256Z,100515.88
2022-10-13T17:25:29.058Z,100510.88
2022-10-13T17:29:30.692Z,100507.09
2022-10-13T17:33:45.375Z,100510.63
2022-10-13T17:37:55.914Z,100516.78
2022-10-13T17:41:59.071Z,100519.31
2022-10-13T17:46:36.872Z,100523.06
2022-10-13T17:50:41.343Z,100518.78
2022-10-13T17:54:50.567Z,100522.38
2022-10-13T17:58:59.145Z,100521.59
2022-10-13T18:03:00.938Z,100521.50
2022-10-13T18:07:06.338Z,100519.28
2022-10-13T18:11:10.367Z,100518.50
2022-10-13T18:15:12.079Z,100517.50
2022-10-13T18:19:13.708Z,100513.91
2022-10-13T18:23:15.409Z,100518.84
2022-10-13T18:27:17.100Z,100512.84
2022-10-13T18:31:27.853Z,100515.38
2022-10-13T18:35:32.491Z,100516.44
2022-10-13T18:39:34.980Z,100515.06
2022-10-13T18:43:36.566Z,100507.19
2022-10-13T18:47:38.112Z,100509.53
2022-10-13T18:51:41.164Z,100507.53
2022-10-13T18:55:51.373Z,100509.00
2022-10-13T18:59:53.090Z,100507.50
2022-10-13T19:04:03.644Z,100504.06
2022-10-13T19:08:09.361Z,100501.91
2022-10-13T19:12:11.169Z,100493.88
2022-10-13T19:16:14.279Z,100490.00
2022-10-13T19:20:16.020Z,100494.00
2022-10-13T19:24:20.933Z,100486.69
2022-10-13T19:28:22.702Z,100482.13
2022-10-13T19:32:28.851Z,100494.78
2022-10-13T19:36:39.001Z,100490.31
2022-10-13T19:40:47.946Z,100485.09
2022-10-13T19:44:50.038Z,100475.59
2022-10-13T19:48:51.873Z,100480.69
2022-10-13T19:52:53.550Z,100484.06
2022-10-13T19:56:55.150Z,100480.25
2022-10-13T20:01:02.641Z,100494.63
2022-10-13T20:05:04.728Z,100499.03
2022-10-13T20:09:06.699Z,100488.81
2022-10-13T20:13:09.917Z,100491.66
2022-10-13T20:17:13.757Z,100497.81
2022-10-13T20:21:16.986Z,100496.09
2022-10-13T20:25:19.931Z,100492.66
2022-10-13T20:29:21.511Z,100496.69
2022-10-13T20:33:23.161Z,100499.66
2022-10-13T20:37:24.932Z,100501.47
2022-10-13T20:41:29.634Z,100497.94
2022-10-13T20:45:31.318Z,100497.72
2022-10-13T20:49:33.092Z,100498.13
2022-10-13T20:53:37.348Z,100504.78
2022-10-13T20:57:38.978Z,100500.88
2022-10-13T21:01:40.784Z,100505.69
2022-10-13T21:05:42.427Z,100502.94
2022-10-13T21:09:44.240Z,100503.19
2022-10-13T21:13:47.021Z,100505.63
2022-10-13T21:17:49.353Z,100501.16
2022-10-13T21:21:50.951Z,100497.63
2022-10-13T21:25:52.569Z,100489.22
2022-10-13T21:29:54.274Z,100485.69
2022-10-13T21:33:56.743Z,100485.75
2022-10-13T21:37:58.338Z,100490.88
2022-10-13T21:42:00.025Z,100487.84
2022-10-13T21:46:19.736Z,100480.66
2022-10-13T21:50:28.326Z,100483.34
2022-10-13T21:54:29.935Z,100489.47
2022-10-13T21:58:31.766Z,100485.59
2022-10-13T22:02:33.316Z,100489.31
2022-10-13T22:06:35.070Z,100495.22
2022-10-13T22:10:36.748Z,100486.28
2022-10-13T22:14:38.592Z,100486.28
2022-10-13T22:18:41.020Z,100474.47
2022-10-13T22:22:42.782Z,100472.03
2022-10-13T22:26:46.260Z,100481.59
2022-10-13T22:31:14.099Z,100467.06
2022-10-13T22:35:24.948Z,100457.72
2022-10-13T22:39:27.513Z,100449.72
2022-10-13T22:43:34.553Z,100459.44
2022-10-13T22:47:48.906Z,100454.09
2022-10-13T22:57:43.758Z,100456.41
2022-10-13T23:01:45.502Z,100451.34
2022-10-13T23:05:48.868Z,100453.78
2022-10-13T23:09:51.567Z,100461.78
2022-10-13T23:13:53.612Z,100464.69
2022-10-13T23:17:55.374Z,100465.28
2022-10-13T23:21:57.135Z,100461.22
2022-10-13T23:26:06.873Z,100454.19
2022-10-13T23:30:09.077Z,100451.91
2022-10-13T23:34:10.602Z,100453.28
2022-10-13T23:38:12.191Z,100454.97
2022-10-13T23:42:14.038Z,100446.81
2022-10-13T23:46:15.529Z,100447.97
2022-10-13T23:50:17.261Z,100445.38
2022-10-13T23:54:18.763Z,100448.13
2022-10-13T23:58:20.402Z,100454.25
